Terminal Aerodrome Forecast
Issued by NWS

Home | Current Version | Previous Version | Text Only | Print | Product List | Glossary On
Versions: 1 2 3 4 5 6 7 8 9 10 11 12 13 14
000
FTUS43 KGRR 171700 RRA
TAFAZO
TAF
KAZO 171746Z 1718/1818 20012G20KT P6SM SCT080
     FM180000 23008KT P6SM SCT035
     FM180600 26005KT 4SM -RA BR OVC025
     FM181400 31008KT P6SM SCT035=

USA.gov is the U.S. government's official web portal to all federal, state and local government web resources and services.